sensor_id;sensor_type;location;lat;lon;timestamp;P1;durP1;ratioP1;P2;durP2;ratioP2
17451;SDS011;8843;48.838;9.324;2022-12-18T00:02:12;34.10;;;20.33;;
17451;SDS011;8843;48.838;9.324;2022-12-18T00:04:39;41.00;;;22.00;;
17451;SDS011;8843;48.838;9.324;2022-12-18T00:07:07;35.93;;;20.50;;
17451;SDS011;8843;48.838;9.324;2022-12-18T00:09:34;38.43;;;21.17;;
17451;SDS011;8843;48.838;9.324;2022-12-18T00:12:01;37.50;;;20.03;;
17451;SDS011;8843;48.838;9.324;2022-12-18T00:14:28;34.70;;;19.47;;
17451;SDS011;8843;48.838;9.324;2022-12-18T00:16:55;38.20;;;20.13;;
17451;SDS011;8843;48.838;9.324;2022-12-18T00:19:23;33.50;;;18.63;;
17451;SDS011;8843;48.838;9.324;2022-12-18T00:21:50;33.77;;;19.57;;
17451;SDS011;8843;48.838;9.324;2022-12-18T00:24:18;41.30;;;22.23;;
17451;SDS011;8843;48.838;9.324;2022-12-18T00:26:45;37.63;;;21.33;;
17451;SDS011;8843;48.838;9.324;2022-12-18T00:29:13;37.33;;;22.03;;
17451;SDS011;8843;48.838;9.324;2022-12-18T00:31:40;40.43;;;21.70;;
17451;SDS011;8843;48.838;9.324;2022-12-18T00:34:08;32.23;;;19.50;;
17451;SDS011;8843;48.838;9.324;2022-12-18T00:36:36;36.87;;;20.87;;
17451;SDS011;8843;48.838;9.324;2022-12-18T00:39:03;31.67;;;18.47;;
17451;SDS011;8843;48.838;9.324;2022-12-18T00:41:32;38.90;;;19.57;;
17451;SDS011;8843;48.838;9.324;2022-12-18T00:44:17;35.83;;;20.10;;
17451;SDS011;8843;48.838;9.324;2022-12-18T00:46:45;35.03;;;20.63;;
17451;SDS011;8843;48.838;9.324;2022-12-18T00:49:12;34.57;;;19.83;;
17451;SDS011;8843;48.838;9.324;2022-12-18T00:51:40;34.40;;;19.70;;
17451;SDS011;8843;48.838;9.324;2022-12-18T00:54:07;33.80;;;19.03;;
17451;SDS011;8843;48.838;9.324;2022-12-18T00:56:36;34.47;;;20.17;;
17451;SDS011;8843;48.838;9.324;2022-12-18T00:59:03;33.73;;;20.50;;
17451;SDS011;8843;48.838;9.324;2022-12-18T01:01:30;36.30;;;20.40;;
17451;SDS011;8843;48.838;9.324;2022-12-18T01:03:57;34.57;;;19.63;;
17451;SDS011;8843;48.838;9.324;2022-12-18T01:06:25;34.50;;;20.13;;
17451;SDS011;8843;48.838;9.324;2022-12-18T01:08:52;37.33;;;20.83;;
17451;SDS011;8843;48.838;9.324;2022-12-18T01:11:19;33.60;;;20.10;;
17451;SDS011;8843;48.838;9.324;2022-12-18T01:13:48;35.53;;;20.63;;
17451;SDS011;8843;48.838;9.324;2022-12-18T01:16:16;38.87;;;21.53;;
17451;SDS011;8843;48.838;9.324;2022-12-18T01:18:43;36.93;;;20.33;;
17451;SDS011;8843;48.838;9.324;2022-12-18T01:21:12;36.67;;;19.53;;
17451;SDS011;8843;48.838;9.324;2022-12-18T01:23:40;37.70;;;21.23;;
17451;SDS011;8843;48.838;9.324;2022-12-18T01:26:12;32.80;;;17.93;;
17451;SDS011;8843;48.838;9.324;2022-12-18T01:28:40;32.87;;;19.93;;
17451;SDS011;8843;48.838;9.324;2022-12-18T01:31:11;32.90;;;18.20;;
17451;SDS011;8843;48.838;9.324;2022-12-18T01:33:39;35.40;;;20.17;;
17451;SDS011;8843;48.838;9.324;2022-12-18T01:36:06;38.67;;;20.07;;
17451;SDS011;8843;48.838;9.324;2022-12-18T01:38:34;33.93;;;20.10;;
17451;SDS011;8843;48.838;9.324;2022-12-18T01:41:01;38.17;;;20.30;;
17451;SDS011;8843;48.838;9.324;2022-12-18T01:43:45;34.70;;;20.57;;
17451;SDS011;8843;48.838;9.324;2022-12-18T01:46:18;39.60;;;21.60;;
17451;SDS011;8843;48.838;9.324;2022-12-18T01:48:47;36.33;;;20.83;;
17451;SDS011;8843;48.838;9.324;2022-12-18T01:51:17;40.67;;;21.13;;
17451;SDS011;8843;48.838;9.324;2022-12-18T01:53:44;38.03;;;20.87;;
17451;SDS011;8843;48.838;9.324;2022-12-18T01:56:12;36.63;;;20.40;;
17451;SDS011;8843;48.838;9.324;2022-12-18T01:58:44;34.63;;;19.80;;
17451;SDS011;8843;48.838;9.324;2022-12-18T02:01:18;35.77;;;20.47;;
17451;SDS011;8843;48.838;9.324;2022-12-18T02:03:47;39.73;;;21.40;;
17451;SDS011;8843;48.838;9.324;2022-12-18T02:06:15;37.43;;;20.47;;
17451;SDS011;8843;48.838;9.324;2022-12-18T02:08:47;36.23;;;19.40;;
17451;SDS011;8843;48.838;9.324;2022-12-18T02:11:22;35.37;;;19.87;;
17451;SDS011;8843;48.838;9.324;2022-12-18T02:13:59;37.30;;;18.43;;
17451;SDS011;8843;48.838;9.324;2022-12-18T02:16:34;38.07;;;20.20;;
17451;SDS011;8843;48.838;9.324;2022-12-18T02:19:06;38.63;;;19.23;;
17451;SDS011;8843;48.838;9.324;2022-12-18T02:21:46;36.17;;;20.67;;
17451;SDS011;8843;48.838;9.324;2022-12-18T02:24:24;42.20;;;21.97;;
17451;SDS011;8843;48.838;9.324;2022-12-18T02:26:58;32.03;;;18.43;;
17451;SDS011;8843;48.838;9.324;2022-12-18T02:29:29;34.47;;;20.40;;
17451;SDS011;8843;48.838;9.324;2022-12-18T02:31:59;35.70;;;19.87;;
17451;SDS011;8843;48.838;9.324;2022-12-18T02:34:27;35.60;;;19.90;;
17451;SDS011;8843;48.838;9.324;2022-12-18T02:36:57;33.13;;;17.93;;
17451;SDS011;8843;48.838;9.324;2022-12-18T02:39:27;32.47;;;17.57;;
17451;SDS011;8843;48.838;9.324;2022-12-18T02:41:55;35.10;;;19.83;;
17451;SDS011;8843;48.838;9.324;2022-12-18T02:44:27;30.33;;;18.90;;
17451;SDS011;8843;48.838;9.324;2022-12-18T02:46:54;31.20;;;17.87;;
17451;SDS011;8843;48.838;9.324;2022-12-18T02:49:24;29.10;;;16.83;;
17451;SDS011;8843;48.838;9.324;2022-12-18T02:52:01;33.13;;;19.23;;
17451;SDS011;8843;48.838;9.324;2022-12-18T02:54:41;36.87;;;20.70;;
17451;SDS011;8843;48.838;9.324;2022-12-18T02:57:22;35.93;;;19.83;;
17451;SDS011;8843;48.838;9.324;2022-12-18T02:59:57;39.67;;;21.73;;
17451;SDS011;8843;48.838;9.324;2022-12-18T03:02:29;38.90;;;21.10;;
17451;SDS011;8843;48.838;9.324;2022-12-18T03:05:05;33.60;;;19.53;;
17451;SDS011;8843;48.838;9.324;2022-12-18T03:07:37;35.70;;;19.77;;
17451;SDS011;8843;48.838;9.324;2022-12-18T03:10:08;36.70;;;20.23;;
17451;SDS011;8843;48.838;9.324;2022-12-18T03:12:41;31.70;;;18.10;;
17451;SDS011;8843;48.838;9.324;2022-12-18T03:15:14;31.33;;;18.63;;
17451;SDS011;8843;48.838;9.324;2022-12-18T03:17:46;40.23;;;20.53;;
17451;SDS011;8843;48.838;9.324;2022-12-18T03:20:19;34.20;;;18.13;;
17451;SDS011;8843;48.838;9.324;2022-12-18T03:22:49;35.03;;;18.87;;
17451;SDS011;8843;48.838;9.324;2022-12-18T03:25:19;37.10;;;18.87;;
17451;SDS011;8843;48.838;9.324;2022-12-18T03:27:50;29.50;;;17.47;;
17451;SDS011;8843;48.838;9.324;2022-12-18T03:30:19;35.07;;;19.87;;
17451;SDS011;8843;48.838;9.324;2022-12-18T03:32:47;35.87;;;19.73;;
17451;SDS011;8843;48.838;9.324;2022-12-18T03:35:20;34.10;;;20.80;;
17451;SDS011;8843;48.838;9.324;2022-12-18T03:38:03;41.30;;;22.10;;
17451;SDS011;8843;48.838;9.324;2022-12-18T03:40:32;37.00;;;20.70;;
17451;SDS011;8843;48.838;9.324;2022-12-18T03:43:07;34.27;;;19.27;;
17451;SDS011;8843;48.838;9.324;2022-12-18T03:45:38;29.20;;;17.63;;
17451;SDS011;8843;48.838;9.324;2022-12-18T03:48:12;34.53;;;18.23;;
17451;SDS011;8843;48.838;9.324;2022-12-18T03:50:46;38.67;;;19.30;;
17451;SDS011;8843;48.838;9.324;2022-12-18T03:53:22;33.00;;;19.13;;
17451;SDS011;8843;48.838;9.324;2022-12-18T03:55:55;33.80;;;17.97;;
17451;SDS011;8843;48.838;9.324;2022-12-18T03:58:25;28.67;;;17.40;;
17451;SDS011;8843;48.838;9.324;2022-12-18T04:00:53;29.00;;;16.20;;
17451;SDS011;8843;48.838;9.324;2022-12-18T04:03:23;27.60;;;16.43;;
17451;SDS011;8843;48.838;9.324;2022-12-18T04:05:51;27.37;;;16.47;;
17451;SDS011;8843;48.838;9.324;2022-12-18T04:08:20;26.37;;;15.93;;
17451;SDS011;8843;48.838;9.324;2022-12-18T04:10:49;25.67;;;14.87;;
17451;SDS011;8843;48.838;9.324;2022-12-18T04:13:21;26.33;;;15.27;;
17451;SDS011;8843;48.838;9.324;2022-12-18T04:15:49;28.10;;;16.47;;
17451;SDS011;8843;48.838;9.324;2022-12-18T04:18:18;30.53;;;15.27;;
17451;SDS011;8843;48.838;9.324;2022-12-18T04:20:44;24.93;;;15.80;;
17451;SDS011;8843;48.838;9.324;2022-12-18T04:23:11;25.33;;;14.37;;
17451;SDS011;8843;48.838;9.324;2022-12-18T04:25:38;26.47;;;15.50;;
17451;SDS011;8843;48.838;9.324;2022-12-18T04:28:05;26.83;;;15.10;;
17451;SDS011;8843;48.838;9.324;2022-12-18T04:30:32;25.83;;;15.40;;
17451;SDS011;8843;48.838;9.324;2022-12-18T04:33:00;25.23;;;15.17;;
17451;SDS011;8843;48.838;9.324;2022-12-18T04:35:27;32.13;;;16.10;;
17451;SDS011;8843;48.838;9.324;2022-12-18T04:37:54;26.23;;;14.90;;
17451;SDS011;8843;48.838;9.324;2022-12-18T04:40:21;23.63;;;14.53;;
17451;SDS011;8843;48.838;9.324;2022-12-18T04:42:48;30.73;;;15.73;;
17451;SDS011;8843;48.838;9.324;2022-12-18T04:45:15;24.50;;;15.07;;
17451;SDS011;8843;48.838;9.324;2022-12-18T04:47:42;26.27;;;15.20;;
17451;SDS011;8843;48.838;9.324;2022-12-18T04:50:10;24.47;;;15.10;;
17451;SDS011;8843;48.838;9.324;2022-12-18T04:52:37;27.97;;;15.33;;
17451;SDS011;8843;48.838;9.324;2022-12-18T04:55:04;26.63;;;15.23;;
17451;SDS011;8843;48.838;9.324;2022-12-18T04:57:31;26.50;;;14.80;;
17451;SDS011;8843;48.838;9.324;2022-12-18T04:59:58;25.80;;;14.20;;
17451;SDS011;8843;48.838;9.324;2022-12-18T05:02:25;22.57;;;13.57;;
17451;SDS011;8843;48.838;9.324;2022-12-18T05:04:52;25.93;;;13.97;;
17451;SDS011;8843;48.838;9.324;2022-12-18T05:07:20;26.80;;;15.07;;
17451;SDS011;8843;48.838;9.324;2022-12-18T05:09:47;24.37;;;13.93;;
17451;SDS011;8843;48.838;9.324;2022-12-18T05:12:14;21.70;;;12.87;;
17451;SDS011;8843;48.838;9.324;2022-12-18T05:14:41;24.73;;;14.47;;
17451;SDS011;8843;48.838;9.324;2022-12-18T05:17:08;26.93;;;14.13;;
17451;SDS011;8843;48.838;9.324;2022-12-18T05:19:35;22.77;;;12.87;;
17451;SDS011;8843;48.838;9.324;2022-12-18T05:22:01;24.10;;;14.57;;
17451;SDS011;8843;48.838;9.324;2022-12-18T05:24:30;23.63;;;13.13;;
17451;SDS011;8843;48.838;9.324;2022-12-18T05:26:57;24.13;;;13.40;;
17451;SDS011;8843;48.838;9.324;2022-12-18T05:29:23;29.53;;;14.67;;
17451;SDS011;8843;48.838;9.324;2022-12-18T05:31:50;24.73;;;14.50;;
17451;SDS011;8843;48.838;9.324;2022-12-18T05:34:17;23.03;;;14.30;;
17451;SDS011;8843;48.838;9.324;2022-12-18T05:36:44;24.47;;;15.13;;
17451;SDS011;8843;48.838;9.324;2022-12-18T05:39:11;28.17;;;16.40;;
17451;SDS011;8843;48.838;9.324;2022-12-18T05:41:39;27.70;;;16.57;;
17451;SDS011;8843;48.838;9.324;2022-12-18T05:44:06;27.57;;;16.30;;
17451;SDS011;8843;48.838;9.324;2022-12-18T05:46:33;27.03;;;15.07;;
17451;SDS011;8843;48.838;9.324;2022-12-18T05:49:01;25.17;;;13.87;;
17451;SDS011;8843;48.838;9.324;2022-12-18T05:51:28;27.57;;;14.83;;
17451;SDS011;8843;48.838;9.324;2022-12-18T05:53:55;29.63;;;14.10;;
17451;SDS011;8843;48.838;9.324;2022-12-18T05:56:22;26.07;;;15.33;;
17451;SDS011;8843;48.838;9.324;2022-12-18T05:58:52;20.70;;;13.07;;
17451;SDS011;8843;48.838;9.324;2022-12-18T06:01:20;25.10;;;15.00;;
17451;SDS011;8843;48.838;9.324;2022-12-18T06:03:49;25.27;;;14.57;;
17451;SDS011;8843;48.838;9.324;2022-12-18T06:06:16;24.53;;;13.83;;
17451;SDS011;8843;48.838;9.324;2022-12-18T06:08:45;25.33;;;13.20;;
17451;SDS011;8843;48.838;9.324;2022-12-18T06:11:12;26.73;;;14.50;;
17451;SDS011;8843;48.838;9.324;2022-12-18T06:13:39;24.47;;;14.33;;
17451;SDS011;8843;48.838;9.324;2022-12-18T06:16:07;28.37;;;14.60;;
17451;SDS011;8843;48.838;9.324;2022-12-18T06:18:34;28.97;;;13.33;;
17451;SDS011;8843;48.838;9.324;2022-12-18T06:21:03;21.97;;;13.33;;
17451;SDS011;8843;48.838;9.324;2022-12-18T06:23:30;25.70;;;13.90;;
17451;SDS011;8843;48.838;9.324;2022-12-18T06:25:56;25.17;;;13.93;;
17451;SDS011;8843;48.838;9.324;2022-12-18T06:28:23;25.57;;;12.43;;
17451;SDS011;8843;48.838;9.324;2022-12-18T06:30:50;24.20;;;13.40;;
17451;SDS011;8843;48.838;9.324;2022-12-18T06:33:19;26.00;;;13.27;;
17451;SDS011;8843;48.838;9.324;2022-12-18T06:35:46;28.53;;;14.13;;
17451;SDS011;8843;48.838;9.324;2022-12-18T06:38:13;25.67;;;13.07;;
17451;SDS011;8843;48.838;9.324;2022-12-18T06:40:40;19.97;;;12.93;;
17451;SDS011;8843;48.838;9.324;2022-12-18T06:43:06;21.40;;;12.27;;
17451;SDS011;8843;48.838;9.324;2022-12-18T06:45:33;26.80;;;13.43;;
17451;SDS011;8843;48.838;9.324;2022-12-18T06:48:00;21.27;;;13.30;;
17451;SDS011;8843;48.838;9.324;2022-12-18T06:50:28;24.37;;;12.63;;
17451;SDS011;8843;48.838;9.324;2022-12-18T06:52:55;23.00;;;12.70;;
17451;SDS011;8843;48.838;9.324;2022-12-18T06:55:22;22.40;;;12.93;;
17451;SDS011;8843;48.838;9.324;2022-12-18T06:57:49;25.03;;;13.57;;
17451;SDS011;8843;48.838;9.324;2022-12-18T07:00:16;24.33;;;13.73;;
17451;SDS011;8843;48.838;9.324;2022-12-18T07:02:43;29.30;;;14.73;;
17451;SDS011;8843;48.838;9.324;2022-12-18T07:05:10;23.57;;;12.50;;
17451;SDS011;8843;48.838;9.324;2022-12-18T07:07:38;25.50;;;12.93;;
17451;SDS011;8843;48.838;9.324;2022-12-18T07:10:05;26.20;;;12.57;;
17451;SDS011;8843;48.838;9.324;2022-12-18T07:14:59;21.40;;;12.20;;
17451;SDS011;8843;48.838;9.324;2022-12-18T07:17:26;23.47;;;13.40;;
17451;SDS011;8843;48.838;9.324;2022-12-18T07:19:53;24.23;;;12.50;;
17451;SDS011;8843;48.838;9.324;2022-12-18T07:22:20;24.60;;;12.17;;
17451;SDS011;8843;48.838;9.324;2022-12-18T07:24:48;24.67;;;13.63;;
17451;SDS011;8843;48.838;9.324;2022-12-18T07:27:15;17.60;;;10.47;;
17451;SDS011;8843;48.838;9.324;2022-12-18T07:29:42;24.50;;;12.90;;
17451;SDS011;8843;48.838;9.324;2022-12-18T07:32:08;23.40;;;14.23;;
17451;SDS011;8843;48.838;9.324;2022-12-18T07:34:35;24.53;;;13.27;;
17451;SDS011;8843;48.838;9.324;2022-12-18T07:37:02;21.03;;;11.80;;
17451;SDS011;8843;48.838;9.324;2022-12-18T07:39:29;23.47;;;12.60;;
17451;SDS011;8843;48.838;9.324;2022-12-18T07:41:57;23.37;;;12.63;;
17451;SDS011;8843;48.838;9.324;2022-12-18T07:44:41;24.10;;;12.40;;
17451;SDS011;8843;48.838;9.324;2022-12-18T07:47:08;25.73;;;12.20;;
17451;SDS011;8843;48.838;9.324;2022-12-18T07:49:35;20.43;;;12.33;;
17451;SDS011;8843;48.838;9.324;2022-12-18T07:52:02;23.17;;;11.67;;
17451;SDS011;8843;48.838;9.324;2022-12-18T07:54:29;21.63;;;12.53;;
17451;SDS011;8843;48.838;9.324;2022-12-18T07:56:58;20.67;;;11.13;;
17451;SDS011;8843;48.838;9.324;2022-12-18T07:59:25;15.33;;;9.73;;
17451;SDS011;8843;48.838;9.324;2022-12-18T08:01:52;22.47;;;11.73;;
17451;SDS011;8843;48.838;9.324;2022-12-18T08:04:19;19.43;;;11.87;;
17451;SDS011;8843;48.838;9.324;2022-12-18T08:06:46;26.10;;;13.67;;
17451;SDS011;8843;48.838;9.324;2022-12-18T08:09:13;23.10;;;12.30;;
17451;SDS011;8843;48.838;9.324;2022-12-18T08:11:40;19.70;;;11.47;;
17451;SDS011;8843;48.838;9.324;2022-12-18T08:14:08;23.57;;;13.13;;
17451;SDS011;8843;48.838;9.324;2022-12-18T08:16:35;25.53;;;12.43;;
17451;SDS011;8843;48.838;9.324;2022-12-18T08:19:02;24.27;;;13.13;;
17451;SDS011;8843;48.838;9.324;2022-12-18T08:21:30;21.23;;;12.33;;
17451;SDS011;8843;48.838;9.324;2022-12-18T08:23:57;23.87;;;13.57;;
17451;SDS011;8843;48.838;9.324;2022-12-18T08:26:27;26.43;;;15.07;;
17451;SDS011;8843;48.838;9.324;2022-12-18T08:28:55;26.87;;;14.60;;
17451;SDS011;8843;48.838;9.324;2022-12-18T08:31:24;23.97;;;12.07;;
17451;SDS011;8843;48.838;9.324;2022-12-18T08:33:52;28.10;;;14.47;;
17451;SDS011;8843;48.838;9.324;2022-12-18T08:36:20;29.70;;;15.80;;
17451;SDS011;8843;48.838;9.324;2022-12-18T08:38:47;24.10;;;13.47;;
17451;SDS011;8843;48.838;9.324;2022-12-18T08:41:15;30.70;;;16.77;;
17451;SDS011;8843;48.838;9.324;2022-12-18T08:43:43;29.10;;;15.97;;
17451;SDS011;8843;48.838;9.324;2022-12-18T08:46:31;30.67;;;15.93;;
17451;SDS011;8843;48.838;9.324;2022-12-18T08:49:00;25.20;;;14.70;;
17451;SDS011;8843;48.838;9.324;2022-12-18T08:51:27;27.57;;;15.37;;
17451;SDS011;8843;48.838;9.324;2022-12-18T08:53:53;26.60;;;15.63;;
17451;SDS011;8843;48.838;9.324;2022-12-18T08:56:20;31.53;;;16.77;;
17451;SDS011;8843;48.838;9.324;2022-12-18T08:58:47;35.57;;;18.40;;
17451;SDS011;8843;48.838;9.324;2022-12-18T09:01:17;34.57;;;18.70;;
17451;SDS011;8843;48.838;9.324;2022-12-18T09:03:46;33.70;;;18.87;;
17451;SDS011;8843;48.838;9.324;2022-12-18T09:06:13;32.53;;;17.83;;
17451;SDS011;8843;48.838;9.324;2022-12-18T09:08:41;33.47;;;17.37;;
17451;SDS011;8843;48.838;9.324;2022-12-18T09:11:11;34.40;;;18.10;;
17451;SDS011;8843;48.838;9.324;2022-12-18T09:13:39;38.10;;;19.83;;
17451;SDS011;8843;48.838;9.324;2022-12-18T09:16:06;36.40;;;19.07;;
17451;SDS011;8843;48.838;9.324;2022-12-18T09:18:33;35.33;;;17.87;;
17451;SDS011;8843;48.838;9.324;2022-12-18T09:21:08;34.73;;;18.97;;
17451;SDS011;8843;48.838;9.324;2022-12-18T09:23:35;38.43;;;18.80;;
17451;SDS011;8843;48.838;9.324;2022-12-18T09:26:02;32.73;;;18.17;;
17451;SDS011;8843;48.838;9.324;2022-12-18T09:28:29;32.73;;;18.07;;
17451;SDS011;8843;48.838;9.324;2022-12-18T09:30:56;34.40;;;18.30;;
17451;SDS011;8843;48.838;9.324;2022-12-18T09:33:23;33.97;;;17.57;;
17451;SDS011;8843;48.838;9.324;2022-12-18T09:35:50;31.00;;;17.83;;
17451;SDS011;8843;48.838;9.324;2022-12-18T09:38:19;34.07;;;17.80;;
17451;SDS011;8843;48.838;9.324;2022-12-18T09:40:48;34.87;;;18.80;;
17451;SDS011;8843;48.838;9.324;2022-12-18T09:43:18;44.80;;;24.07;;
17451;SDS011;8843;48.838;9.324;2022-12-18T09:45:46;50.40;;;25.77;;
17451;SDS011;8843;48.838;9.324;2022-12-18T09:48:19;39.90;;;20.67;;
17451;SDS011;8843;48.838;9.324;2022-12-18T09:50:52;40.07;;;20.50;;
17451;SDS011;8843;48.838;9.324;2022-12-18T09:53:31;37.60;;;20.07;;
17451;SDS011;8843;48.838;9.324;2022-12-18T09:56:02;42.90;;;21.20;;
17451;SDS011;8843;48.838;9.324;2022-12-18T09:58:32;34.50;;;20.17;;
17451;SDS011;8843;48.838;9.324;2022-12-18T10:01:06;35.23;;;20.67;;
17451;SDS011;8843;48.838;9.324;2022-12-18T10:03:36;41.77;;;21.00;;
17451;SDS011;8843;48.838;9.324;2022-12-18T10:06:05;39.57;;;21.73;;
17451;SDS011;8843;48.838;9.324;2022-12-18T10:08:39;40.23;;;20.87;;
17451;SDS011;8843;48.838;9.324;2022-12-18T10:11:25;39.90;;;20.00;;
17451;SDS011;8843;48.838;9.324;2022-12-18T10:14:01;40.63;;;19.10;;
17451;SDS011;8843;48.838;9.324;2022-12-18T10:16:36;37.90;;;19.10;;
17451;SDS011;8843;48.838;9.324;2022-12-18T10:19:17;40.03;;;19.57;;
17451;SDS011;8843;48.838;9.324;2022-12-18T10:21:52;37.63;;;18.27;;
17451;SDS011;8843;48.838;9.324;2022-12-18T10:24:29;42.23;;;19.60;;
17451;SDS011;8843;48.838;9.324;2022-12-18T10:27:08;32.60;;;16.90;;
17451;SDS011;8843;48.838;9.324;2022-12-18T10:29:40;35.67;;;17.27;;
17451;SDS011;8843;48.838;9.324;2022-12-18T10:32:09;34.07;;;17.43;;
17451;SDS011;8843;48.838;9.324;2022-12-18T10:34:41;32.67;;;17.17;;
17451;SDS011;8843;48.838;9.324;2022-12-18T10:37:11;35.93;;;18.03;;
17451;SDS011;8843;48.838;9.324;2022-12-18T10:39:44;33.57;;;17.20;;
17451;SDS011;8843;48.838;9.324;2022-12-18T10:42:16;34.03;;;18.33;;
17451;SDS011;8843;48.838;9.324;2022-12-18T10:44:44;35.83;;;16.70;;
17451;SDS011;8843;48.838;9.324;2022-12-18T10:47:12;36.83;;;18.47;;
17451;SDS011;8843;48.838;9.324;2022-12-18T10:49:42;33.17;;;16.13;;
17451;SDS011;8843;48.838;9.324;2022-12-18T10:52:15;32.17;;;16.20;;
17451;SDS011;8843;48.838;9.324;2022-12-18T10:54:49;36.77;;;17.50;;
17451;SDS011;8843;48.838;9.324;2022-12-18T10:57:28;39.13;;;17.73;;
17451;SDS011;8843;48.838;9.324;2022-12-18T10:59:58;37.07;;;18.40;;
17451;SDS011;8843;48.838;9.324;2022-12-18T11:02:27;39.07;;;17.23;;
17451;SDS011;8843;48.838;9.324;2022-12-18T11:04:59;32.60;;;17.07;;
17451;SDS011;8843;48.838;9.324;2022-12-18T11:07:29;34.40;;;16.97;;
17451;SDS011;8843;48.838;9.324;2022-12-18T11:10:16;38.90;;;18.43;;
17451;SDS011;8843;48.838;9.324;2022-12-18T11:12:44;40.33;;;18.33;;
17451;SDS011;8843;48.838;9.324;2022-12-18T11:15:14;39.10;;;17.13;;
17451;SDS011;8843;48.838;9.324;2022-12-18T11:17:43;35.33;;;17.10;;
17451;SDS011;8843;48.838;9.324;2022-12-18T11:20:19;33.73;;;15.40;;
17451;SDS011;8843;48.838;9.324;2022-12-18T11:22:54;34.00;;;15.80;;
17451;SDS011;8843;48.838;9.324;2022-12-18T11:25:24;33.73;;;16.43;;
17451;SDS011;8843;48.838;9.324;2022-12-18T11:27:52;33.40;;;15.17;;
17451;SDS011;8843;48.838;9.324;2022-12-18T11:30:22;32.40;;;15.80;;
17451;SDS011;8843;48.838;9.324;2022-12-18T11:32:51;36.80;;;16.17;;
17451;SDS011;8843;48.838;9.324;2022-12-18T11:35:23;33.63;;;15.57;;
17451;SDS011;8843;48.838;9.324;2022-12-18T11:37:59;35.50;;;16.67;;
17451;SDS011;8843;48.838;9.324;2022-12-18T11:40:34;34.73;;;16.13;;
17451;SDS011;8843;48.838;9.324;2022-12-18T11:43:06;33.73;;;15.93;;
17451;SDS011;8843;48.838;9.324;2022-12-18T11:45:38;34.57;;;16.97;;
17451;SDS011;8843;48.838;9.324;2022-12-18T11:48:14;30.77;;;15.07;;
17451;SDS011;8843;48.838;9.324;2022-12-18T11:50:46;33.40;;;15.73;;
17451;SDS011;8843;48.838;9.324;2022-12-18T11:53:16;33.93;;;16.37;;
17451;SDS011;8843;48.838;9.324;2022-12-18T11:55:47;30.13;;;15.60;;
17451;SDS011;8843;48.838;9.324;2022-12-18T11:58:24;31.20;;;15.73;;
17451;SDS011;8843;48.838;9.324;2022-12-18T12:01:08;34.37;;;14.73;;
17451;SDS011;8843;48.838;9.324;2022-12-18T12:04:00;32.67;;;16.17;;
17451;SDS011;8843;48.838;9.324;2022-12-18T12:06:45;30.50;;;14.70;;
17451;SDS011;8843;48.838;9.324;2022-12-18T12:09:21;31.87;;;15.47;;
17451;SDS011;8843;48.838;9.324;2022-12-18T12:12:01;31.10;;;15.37;;
17451;SDS011;8843;48.838;9.324;2022-12-18T12:14:42;31.50;;;16.17;;
17451;SDS011;8843;48.838;9.324;2022-12-18T12:17:20;24.07;;;13.93;;
17451;SDS011;8843;48.838;9.324;2022-12-18T12:19:55;30.10;;;14.60;;
17451;SDS011;8843;48.838;9.324;2022-12-18T12:22:30;36.07;;;16.13;;
17451;SDS011;8843;48.838;9.324;2022-12-18T12:25:13;30.80;;;14.60;;
17451;SDS011;8843;48.838;9.324;2022-12-18T12:27:50;31.13;;;13.90;;
17451;SDS011;8843;48.838;9.324;2022-12-18T12:30:28;33.50;;;15.87;;
17451;SDS011;8843;48.838;9.324;2022-12-18T12:33:08;29.50;;;13.97;;
17451;SDS011;8843;48.838;9.324;2022-12-18T12:35:46;27.07;;;13.40;;
17451;SDS011;8843;48.838;9.324;2022-12-18T12:38:19;34.17;;;15.33;;
17451;SDS011;8843;48.838;9.324;2022-12-18T12:40:51;30.33;;;15.33;;
17451;SDS011;8843;48.838;9.324;2022-12-18T12:43:27;29.63;;;14.90;;
17451;SDS011;8843;48.838;9.324;2022-12-18T12:46:03;30.73;;;15.47;;
17451;SDS011;8843;48.838;9.324;2022-12-18T12:48:33;30.03;;;13.83;;
17451;SDS011;8843;48.838;9.324;2022-12-18T12:51:06;26.40;;;13.53;;
17451;SDS011;8843;48.838;9.324;2022-12-18T12:53:37;26.13;;;13.87;;
17451;SDS011;8843;48.838;9.324;2022-12-18T12:56:06;29.93;;;15.53;;
17451;SDS011;8843;48.838;9.324;2022-12-18T12:58:38;27.70;;;15.23;;
17451;SDS011;8843;48.838;9.324;2022-12-18T13:01:14;34.43;;;15.03;;
17451;SDS011;8843;48.838;9.324;2022-12-18T13:03:51;27.23;;;12.80;;
17451;SDS011;8843;48.838;9.324;2022-12-18T13:06:29;27.40;;;14.47;;
17451;SDS011;8843;48.838;9.324;2022-12-18T13:09:03;30.47;;;15.00;;
17451;SDS011;8843;48.838;9.324;2022-12-18T13:11:32;33.20;;;14.77;;
17451;SDS011;8843;48.838;9.324;2022-12-18T13:14:22;27.93;;;13.40;;
17451;SDS011;8843;48.838;9.324;2022-12-18T13:16:56;28.10;;;14.57;;
17451;SDS011;8843;48.838;9.324;2022-12-18T13:20:06;29.00;;;14.47;;
17451;SDS011;8843;48.838;9.324;2022-12-18T13:22:35;30.83;;;13.70;;
17451;SDS011;8843;48.838;9.324;2022-12-18T13:28:10;27.83;;;14.60;;
17451;SDS011;8843;48.838;9.324;2022-12-18T13:30:50;31.43;;;14.27;;
17451;SDS011;8843;48.838;9.324;2022-12-18T13:33:36;27.40;;;14.27;;
17451;SDS011;8843;48.838;9.324;2022-12-18T13:36:10;28.80;;;14.60;;
17451;SDS011;8843;48.838;9.324;2022-12-18T13:38:40;32.00;;;15.27;;
17451;SDS011;8843;48.838;9.324;2022-12-18T13:43:52;25.87;;;14.03;;
17451;SDS011;8843;48.838;9.324;2022-12-18T13:46:25;30.93;;;15.63;;
17451;SDS011;8843;48.838;9.324;2022-12-18T13:48:55;26.90;;;14.37;;
17451;SDS011;8843;48.838;9.324;2022-12-18T13:51:26;30.70;;;15.07;;
17451;SDS011;8843;48.838;9.324;2022-12-18T13:53:54;34.40;;;16.00;;
17451;SDS011;8843;48.838;9.324;2022-12-18T13:56:25;28.70;;;14.30;;
17451;SDS011;8843;48.838;9.324;2022-12-18T13:59:12;30.53;;;14.33;;
17451;SDS011;8843;48.838;9.324;2022-12-18T14:01:47;29.13;;;13.63;;
17451;SDS011;8843;48.838;9.324;2022-12-18T14:04:18;30.53;;;15.10;;
17451;SDS011;8843;48.838;9.324;2022-12-18T14:06:47;29.30;;;14.33;;
17451;SDS011;8843;48.838;9.324;2022-12-18T14:09:17;30.00;;;15.60;;
17451;SDS011;8843;48.838;9.324;2022-12-18T14:11:47;26.87;;;13.50;;
17451;SDS011;8843;48.838;9.324;2022-12-18T14:14:16;28.37;;;13.83;;
17451;SDS011;8843;48.838;9.324;2022-12-18T14:16:46;31.00;;;15.93;;
17451;SDS011;8843;48.838;9.324;2022-12-18T14:19:14;30.00;;;15.13;;
17451;SDS011;8843;48.838;9.324;2022-12-18T14:21:45;27.73;;;15.87;;
17451;SDS011;8843;48.838;9.324;2022-12-18T14:24:13;29.67;;;14.93;;
17451;SDS011;8843;48.838;9.324;2022-12-18T14:26:42;27.63;;;13.30;;
17451;SDS011;8843;48.838;9.324;2022-12-18T14:29:23;26.77;;;14.53;;
17451;SDS011;8843;48.838;9.324;2022-12-18T14:32:09;34.87;;;17.93;;
17451;SDS011;8843;48.838;9.324;2022-12-18T14:34:39;29.50;;;15.17;;
17451;SDS011;8843;48.838;9.324;2022-12-18T14:37:07;30.97;;;16.67;;
17451;SDS011;8843;48.838;9.324;2022-12-18T14:39:36;29.60;;;16.53;;
17451;SDS011;8843;48.838;9.324;2022-12-18T14:42:02;30.10;;;15.63;;
17451;SDS011;8843;48.838;9.324;2022-12-18T14:44:29;34.17;;;16.47;;
17451;SDS011;8843;48.838;9.324;2022-12-18T14:46:56;28.03;;;14.83;;
17451;SDS011;8843;48.838;9.324;2022-12-18T14:49:26;30.40;;;16.67;;
17451;SDS011;8843;48.838;9.324;2022-12-18T14:51:56;28.40;;;15.03;;
17451;SDS011;8843;48.838;9.324;2022-12-18T14:54:28;28.13;;;14.13;;
17451;SDS011;8843;48.838;9.324;2022-12-18T14:56:56;28.53;;;14.77;;
17451;SDS011;8843;48.838;9.324;2022-12-18T14:59:26;26.23;;;14.00;;
17451;SDS011;8843;48.838;9.324;2022-12-18T15:01:57;29.60;;;15.13;;